Latest Weather Observations for Goulburn Airport

IDN60801

Issued at 8:53 pm EDT Tuesday 26 January 2021 (issued every 10 minutes, with the page automatically refreshed every 10 minutes)

About weather observations | Map of weather stations | Latest weather observations for NSW | Other Formats
Station Details ID: 070330 Name: GOULBURN AIRPORT AWS Lat: -34.81 Lon: 149.73 Height: 640.0 m
Data from the previous 72 hours. | See also: Recent months at Goulburn Airport
Date/Time
EDT
Temp
°C
App
Temp
°C
Dew
Point
°C
Rel
Hum
%
Delta-T
°C
Wind Press
QNH
hPa
Press
MSL
hPa
Rain since
9am
mm
Dir  Spd
km/h
Gust
km/h
Spd
kts
Gust
kts
26/08:30pm 20.3 22.6 19.5 95 0.5 W 6 7 3 4 1007.4 1004.3 1.6
26/08:00pm 20.3 23.8 19.5 95 0.5 CALM 0 0 0 0 1007.3 1004.2 1.6
26/07:30pm 20.3 21.7 19.5 95 0.5 W 11 15 6 8 1007.1 1004.0 1.2
26/07:00pm 20.4 19.3 18.7 90 1.1 WNW 22 32 12 17 1007.1 1004.0 0.6
26/06:30pm 22.6 20.7 17.7 74 3.1 W 24 33 13 18 1006.1 1003.0 0.0
26/06:00pm 23.0 22.0 17.9 73 3.3 W 20 28 11 15 1005.6 1002.5 0.0
26/05:30pm 27.1 24.4 14.5 46 7.8 WNW 22 30 12 16 1005.0 1001.8 0.0
26/05:00pm 28.3 23.9 13.0 39 9.3 WNW 28 41 15 22 1004.8 1001.7 0.0
26/04:30pm 29.9 24.1 10.9 31 11.2 NW 32 44 17 24 1004.2 1001.1 0.0
26/04:20pm 30.3 23.5 10.8 30 11.5 NW 37 56 20 30 1004.1 1001.0 0.0
26/04:00pm 30.9 22.7 9.7 27 12.4 NW 43 56 23 30 1003.8 1000.6 0.0
26/03:50pm 31.3 24.7 10.1 27 12.4 NW 35 54 19 29 1003.6 1000.4 0.0
26/03:30pm 31.7 24.7 9.8 26 12.8 NW 37 54 20 29 1003.7 1000.5 0.0
26/03:11pm 32.8 27.8 10.8 26 13.1 NW 28 48 15 26 1003.7 1000.5 0.0
26/03:00pm 31.9 26.9 11.1 28 12.4 WNW 28 43 15 23 1003.8 1000.6 0.0
26/02:30pm 31.5 26.6 11.3 29 12.1 WNW 28 41 15 22 1004.0 1000.9 0.0
26/02:00pm 30.9 24.9 10.8 29 11.9 NW 33 46 18 25 1004.1 1001.0 0.0
26/01:30pm 30.3 24.3 10.8 30 11.5 NW 33 46 18 25 1004.5 1001.4 0.0
26/01:20pm 30.2 24.2 10.7 30 11.5 NW 33 52 18 28 1004.6 1001.5 0.0
26/01:00pm 30.8 23.3 10.7 29 11.9 NW 41 56 22 30 1004.4 1001.3 0.0
26/12:50pm 31.1 24.6 10.4 28 12.2 NW 35 56 19 30 1004.5 1001.4 0.0
26/12:30pm 30.6 24.8 11.5 30 11.4 NW 33 48 18 26 1004.6 1001.5 0.0
26/12:00pm 30.6 24.6 12.0 32 11.2 NW 35 44 19 24 1004.7 1001.6 0.0
26/11:30am 29.0 22.7 11.1 33 10.5 NW 35 46 19 25 1005.1 1001.9 0.0
26/11:00am 30.1 22.1 11.1 31 11.3 NW 44 61 24 33 1005.2 1002.0 0.0
26/10:30am 29.9 21.2 9.9 29 11.6 NW 46 69 25 37 1005.1 1001.9 0.0
26/10:00am 29.1 21.2 10.7 32 10.8 NW 43 65 23 35 1005.4 1002.3 0.0
26/09:33am 29.6 24.7 11.2 32 10.9 NW 28 63 15 34 1005.6 1002.5 0.0
26/09:30am 28.4 23.4 11.0 34 10.2 NW 28 39 15 21 1005.6 1002.5 0.0
26/09:04am 30.0 24.1 10.5 30 11.4 NW 32 52 17 28 1005.6 1002.5 0.0
26/09:00am 29.7 24.4 11.2 31 11.0 NW 30 39 16 21 1005.6 1002.5 0.0
26/08:30am 27.4 21.4 10.2 34 9.9 NW 32 43 17 23 1005.6 1002.5 0.0
26/08:00am 25.9 22.3 10.5 38 8.9 NW 20 28 11 15 1005.6 1002.5 0.0
26/07:30am 24.3 20.9 10.6 42 7.8 NNW 19 26 10 14 1005.4 1002.3 0.0
26/07:18am 22.6 20.8 12.0 51 6.2 NW 13 19 7 10 1005.3 1002.2 0.0
26/07:00am 17.6 17.1 10.7 64 3.8 NW 4 11 2 6 1005.2 1002.0 0.0
26/06:30am 17.2 15.6 8.9 58 4.4 NW 7 9 4 5 1004.7 1001.6 0.0
26/06:00am 19.0 16.8 9.5 54 5.2 NW 11 15 6 8 1004.6 1001.5 0.0
26/05:30am 20.4 18.2 9.3 49 6.1 NNW 11 17 6 9 1004.3 1001.2 0.0
26/05:00am 22.4 18.5 9.6 44 7.2 NW 20 26 11 14 1004.3 1001.2 0.0
26/04:30am 22.7 19.5 9.8 44 7.2 NW 17 20 9 11 1004.3 1001.2 0.0
26/04:00am 21.6 18.6 10.7 50 6.2 NW 17 24 9 13 1004.5 1001.4 0.0
26/03:30am 20.4 18.0 9.9 51 5.8 N 13 17 7 9 1004.7 1001.6 0.0
26/03:00am 20.7 18.8 10.5 52 5.7 NNW 11 17 6 9 1005.2 1002.0 0.0
26/02:30am 20.9 19.3 10.1 50 6.0 NNW 9 11 5 6 1005.5 1002.4 0.0
26/02:00am 21.2 19.1 9.8 48 6.4 NNW 11 13 6 7 1005.8 1002.7 0.0
26/01:30am 21.7 19.9 9.6 46 6.7 NNW 9 11 5 6 1006.0 1002.9 0.0
26/01:00am 21.9 19.7 9.4 45 6.9 NNW 11 13 6 7 1006.2 1003.1 0.0
26/12:30am 23.2 20.5 8.9 40 7.9 NNW 13 15 7 8 1006.6 1003.4 0.0
26/12:00am 24.0 21.5 9.6 40 8.1 NNW 13 15 7 8 1006.7 1003.6 0.0
 
Date/Time
EDT
Temp
°C
App
Temp
°C
Dew
Point
°C
Rel
Hum
%
Delta-T
°C
Wind Press
QNH
hPa
Press
MSL
hPa
Rain since
9am
mm
Dir  Spd
km/h
Gust
km/h
Spd
kts
Gust
kts
25/11:30pm 23.5 21.1 9.9 42 7.7 N 13 15 7 8 1006.7 1003.6 0.0
25/11:00pm 23.1 21.3 9.5 42 7.6 NNE 9 13 5 7 1007.0 1003.9 0.0
25/10:30pm 24.0 21.5 8.4 37 8.6 NNE 11 15 6 8 1007.2 1004.1 0.0
25/10:00pm 25.3 22.3 7.9 33 9.6 NW 13 17 7 9 1007.0 1003.9 0.0
25/09:30pm 26.8 24.5 7.3 29 10.7 N 9 13 5 7 1006.6 1003.4 0.0
25/09:00pm 28.5 25.4 7.1 26 11.8 NNE 13 20 7 11 1006.1 1003.0 0.0
25/08:30pm 30.3 25.2 7.5 24 12.7 NNE 24 33 13 18 1005.8 1002.7 0.0
25/08:00pm 31.0 26.2 8.7 25 12.8 NNE 24 35 13 19 1005.6 1002.5 0.0
25/07:30pm 31.5 28.0 10.2 27 12.5 N 19 24 10 13 1005.6 1002.5 0.0
25/07:00pm 32.8 28.9 10.8 26 13.1 NNE 22 32 12 17 1005.5 1002.4 0.0
25/06:30pm 34.3 30.6 8.1 20 15.1 NNE 17 24 9 13 1005.3 1002.2 0.0
25/06:00pm 33.5 30.6 8.2 21 14.6 N 13 19 7 10 1005.5 1002.4 0.0
25/05:30pm 35.5 33.6 9.1 20 15.5 N 9 20 5 11 1005.7 1002.6 0.0
25/05:00pm 34.2 30.5 8.0 20 15.1 NNW 17 28 9 15 1006.1 1003.0 0.0
25/04:30pm 36.4 33.8 10.6 21 15.5 WNW 15 26 8 14 1006.4 1003.3 0.0
25/04:00pm 35.0 31.7 9.4 21 15.1 NW 17 30 9 16 1007.0 1003.9 0.0
25/03:30pm 34.8 31.8 10.6 23 14.5 NW 17 32 9 17 1007.5 1004.4 0.0
25/03:00pm 33.5 30.2 9.5 23 14.1 WNW 17 26 9 14 1007.9 1004.8 0.0
25/02:30pm 34.5 32.4 11.0 24 14.1 WNW 13 24 7 13 1008.5 1005.4 0.0
25/02:00pm 33.5 30.8 10.2 24 13.8 W 15 24 8 13 1009.0 1005.9 0.0
25/01:30pm 33.8 30.2 10.4 24 13.9 NW 20 28 11 15 1009.5 1006.5 0.0
25/01:00pm 34.4 31.3 10.3 23 14.4 NNW 17 30 9 16 1010.0 1006.9 0.0
25/12:30pm 34.3 31.1 11.4 25 13.8 WNW 19 28 10 15 1010.4 1007.3 0.0
25/12:00pm 33.8 29.4 10.4 24 13.9 W 24 35 13 19 1010.9 1007.9 0.0
25/11:30am 33.6 30.7 10.9 25 13.6 NW 17 28 9 15 1011.1 1008.1 0.0
25/11:00am 32.7 29.5 11.3 27 12.8 NW 19 32 10 17 1011.6 1008.5 0.0
25/10:30am 30.8 26.6 11.2 30 11.6 NW 24 32 13 17 1012.0 1008.9 0.0
25/10:00am 31.3 28.3 12.6 31 11.4 WNW 20 26 11 14 1012.2 1009.1 0.0
25/09:30am 30.4 27.7 12.8 34 10.7 WNW 19 24 10 13 1012.5 1009.5 0.0
25/09:00am 27.1 28.3 13.8 44 8.1 CALM 0 7 0 4 1012.7 1009.7 0.0
25/08:30am 24.4 25.7 15.1 56 5.7 ESE 2 7 1 4 1012.9 1009.9 0.0
25/08:00am 21.1 22.8 15.2 69 3.6 CALM 0 0 0 0 1012.9 1009.9 0.0
25/07:30am 17.8 19.4 14.9 83 1.7 CALM 0 0 0 0 1012.8 1009.8 0.0
25/07:00am 14.6 15.8 13.8 95 0.5 CALM 0 0 0 0 1012.6 1009.6 0.0
25/06:30am 12.8 13.4 11.9 94 0.5 CALM 0 0 0 0 1012.5 1009.5 0.0
25/06:00am 12.9 13.5 11.8 93 0.6 CALM 0 0 0 0 1012.3 1009.3 0.0
25/05:30am 13.4 14.1 12.3 93 0.6 CALM 0 0 0 0 1012.1 1009.0 0.0
25/05:00am 13.2 13.9 12.1 93 0.6 CALM 0 0 0 0 1012.0 1008.9 0.0
25/04:30am 13.6 14.2 12.0 90 0.9 CALM 0 0 0 0 1012.0 1008.9 0.0
25/04:00am 13.9 14.5 11.8 87 1.2 CALM 0 0 0 0 1011.9 1008.8 0.0
25/03:30am 14.4 15.3 12.8 90 0.9 CALM 0 0 0 0 1012.0 1008.9 0.0
25/03:00am 15.4 16.2 12.7 84 1.5 CALM 0 0 0 0 1012.1 1009.0 0.0
25/02:30am 15.6 16.5 12.9 84 1.5 CALM 0 0 0 0 1012.1 1009.0 0.0
25/02:00am 16.1 16.9 12.7 80 1.9 CALM 0 4 0 2 1012.4 1009.4 0.0
25/01:30am 16.8 17.6 12.7 77 2.3 CALM 0 0 0 0 1012.5 1009.5 0.0
25/01:00am 18.0 19.1 13.5 75 2.6 CALM 0 0 0 0 1012.8 1009.8 0.0
25/12:30am 18.2 19.2 13.1 72 3.0 CALM 0 0 0 0 1013.1 1010.1 0.0
25/12:00am 18.7 19.5 12.7 68 3.5 CALM 0 0 0 0 1013.3 1010.2 0.0
 
Date/Time
EDT
Temp
°C
App
Temp
°C
Dew
Point
°C
Rel
Hum
%
Delta-T
°C
Wind Press
QNH
hPa
Press
MSL
hPa
Rain since
9am
mm
Dir  Spd
km/h
Gust
km/h
Spd
kts
Gust
kts
24/11:30pm 20.2 21.2 13.2 64 4.1 CALM 0 0 0 0 1013.3 1010.2 0.0
24/11:00pm 21.4 22.4 13.1 59 4.9 CALM 0 0 0 0 1013.4 1010.3 0.0
24/10:30pm 21.7 21.4 13.3 59 5.0 SE 7 11 4 6 1013.3 1010.2 0.0
24/10:00pm 22.9 22.3 13.4 55 5.7 SSE 9 11 5 6 1013.1 1010.1 0.0
24/09:30pm 24.5 24.1 13.1 49 6.8 SE 7 9 4 5 1012.8 1009.8 0.0
24/09:00pm 27.0 26.6 13.0 42 8.4 NE 7 13 4 7 1012.4 1009.4 0.0
24/08:30pm 27.5 27.7 13.1 41 8.7 NNE 4 9 2 5 1012.0 1008.9 0.0
24/08:00pm 28.5 25.5 13.6 40 9.1 NE 22 32 12 17 1011.8 1008.7 0.0
24/07:30pm 29.0 26.0 13.6 38 9.4 NE 22 32 12 17 1011.1 1008.1 0.0
24/07:00pm 31.4 30.4 9.0 25 12.9 WNW 4 9 2 5 1010.9 1007.9 0.0
24/06:30pm 33.1 30.6 4.8 17 15.4 WSW 7 11 4 6 1010.7 1007.6 0.0
24/06:00pm 33.0 30.8 6.3 19 14.9 W 7 11 4 6 1010.7 1007.6 0.0
24/05:30pm 33.8 29.7 6.2 18 15.4 W 17 22 9 12 1010.8 1007.7 0.0
24/05:00pm 35.6 29.5 5.0 15 16.9 W 26 37 14 20 1010.9 1007.9 0.0
24/04:30pm 36.2 31.6 6.4 16 16.8 WSW 20 35 11 19 1011.0 1008.0 0.0
24/04:00pm 35.2 30.4 5.6 16 16.5 WNW 20 32 11 17 1011.4 1008.4 0.0
24/03:30pm 35.9 30.6 7.0 17 16.5 WNW 24 35 13 19 1011.9 1008.8 0.0
24/03:00pm 35.2 30.8 7.3 18 15.9 NW 20 35 11 19 1012.4 1009.4 0.0
24/02:30pm 35.4 31.0 7.5 18 16.0 W 20 39 11 21 1012.8 1009.8 0.0
24/02:00pm 34.0 29.5 7.1 19 15.2 W 20 39 11 21 1013.3 1010.2 0.0
24/01:30pm 36.0 32.1 9.5 20 15.7 WNW 20 33 11 18 1013.5 1010.4 0.0
24/01:00pm 33.7 28.2 7.6 20 14.9 WNW 26 37 14 20 1013.9 1010.9 0.0
24/12:30pm 35.2 30.2 9.6 21 15.1 WNW 26 43 14 23 1014.2 1011.2 0.0
24/12:00pm 34.1 28.7 9.4 22 14.5 NW 28 43 15 23 1014.4 1011.4 0.0
24/11:30am 33.5 27.7 9.5 23 14.1 NW 30 41 16 22 1015.0 1011.9 0.0
24/11:00am 33.2 27.5 9.9 24 13.7 NW 30 44 16 24 1015.3 1012.3 0.0
24/10:30am 32.1 26.5 10.2 26 12.9 NW 30 39 16 21 1015.5 1012.5 0.0
24/10:00am 31.5 25.8 11.3 29 12.1 NW 32 41 17 22 1015.6 1012.6 0.0
24/09:30am 30.6 24.9 11.1 30 11.6 NW 32 39 17 21 1015.8 1012.8 0.0
24/09:00am 30.3 25.5 11.8 32 11.1 NW 28 37 15 20 1015.6 1012.6 0.0
24/08:30am 27.3 25.9 13.3 42 8.5 N 13 30 7 16 1015.6 1012.6 0.0
24/08:27am 26.4 25.8 13.5 45 7.8 N 9 26 5 14 1015.6 1012.6 0.0
24/08:00am 21.3 23.2 17.7 80 2.3 NNE 4 7 2 4 1015.6 1012.6 0.0
24/07:30am 17.0 19.3 16.8 99 0.1 CALM 0 0 0 0 1015.4 1012.4 0.0
24/07:29am 16.9 19.2 16.7 99 0.1 CALM 0 0 0 0 1015.4 1012.4 0.0
24/07:26am 16.7 18.9 16.5 99 0.1 CALM 0 0 0 0 1015.4 1012.4 0.0
24/07:00am 14.9 16.4 14.7 99 0.1 CALM 0 0 0 0 1015.3 1012.3 0.0
24/06:30am 13.9 15.1 13.7 99 0.1 CALM 0 0 0 0 1015.0 1011.9 0.0
24/06:00am 13.8 14.9 13.6 99 0.1 CALM 0 0 0 0 1014.6 1011.6 0.0
24/05:30am 14.6 16.0 14.3 98 0.2 CALM 0 0 0 0 1014.4 1011.4 0.0
24/05:00am 15.5 17.2 15.2 98 0.2 CALM 0 0 0 0 1014.3 1011.3 0.0
24/04:49am 15.6 17.3 15.1 97 0.3 CALM 0 0 0 0 1014.3 1011.3 0.0
24/04:30am 16.4 18.2 15.6 95 0.5 CALM 0 0 0 0 1014.3 1011.3 0.0
24/04:11am 17.1 18.4 16.1 94 0.6 NNE 4 7 2 4 1014.5 1011.5 0.0
24/04:00am 17.7 18.8 16.6 93 0.7 NNE 6 7 3 4 1014.5 1011.5 0.0
24/03:50am 18.5 20.0 17.5 94 0.6 NNE 6 7 3 4 1014.7 1011.7 0.0
24/03:30am 19.1 20.5 17.9 93 0.8 NNE 7 9 4 5 1014.7 1011.7 0.0
24/03:00am 20.1 21.5 18.6 91 1.0 NNE 9 13 5 7 1015.1 1012.1 0.0
24/02:30am 20.5 22.0 18.8 90 1.1 NNE 9 11 5 6 1015.2 1012.2 0.0
24/02:00am 21.0 22.6 19.1 89 1.2 NE 9 13 5 7 1015.6 1012.6 0.0
24/01:30am 21.1 22.7 19.2 89 1.2 NE 9 13 5 7 1015.6 1012.6 0.0
24/01:00am 21.1 22.6 19.0 88 1.4 ENE 9 13 5 7 1015.7 1012.7 0.0
24/12:30am 21.1 22.6 19.0 88 1.4 ENE 9 13 5 7 1015.8 1012.8 0.0
24/12:00am 21.0 24.2 18.8 87 1.4 CALM 0 4 0 2 1016.1 1013.1 0.0
 
Date/Time
EDT
Temp
°C
App
Temp
°C
Dew
Point
°C
Rel
Hum
%
Delta-T
°C
Wind Press
QNH
hPa
Press
MSL
hPa
Rain since
9am
mm
Dir  Spd
km/h
Gust
km/h
Spd
kts
Gust
kts
23/11:30pm 20.8 23.2 18.7 88 1.4 SE 4 7 2 4 1016.1 1013.1 0.0
23/11:00pm 20.7 22.2 19.0 90 1.1 ESE 9 13 5 7 1016.0 1013.0 0.0
23/10:31pm 19.6 20.7 17.9 90 1.1 SE 9 11 5 6 1016.1 1013.1 0.0
23/10:30pm 19.5 20.5 17.8 90 1.1 SE 9 11 5 6 1016.1 1013.1 0.0
23/10:00pm 20.0 20.5 17.4 85 1.6 SE 11 13 6 7 1015.7 1012.7 0.0
23/09:30pm 20.9 21.0 17.5 81 2.1 SE 13 17 7 9 1015.5 1012.5 0.0
23/09:00pm 22.1 22.8 17.0 73 3.2 ESE 9 17 5 9 1015.1 1012.1 0.0

Other formats

Comma delimited format used in spreadsheet applications
http://www.bom.gov.au/fwo/IDN60801/IDN60801.95716.axf

JavaScript Object Notation format (JSON) in row-major order
http://www.bom.gov.au/fwo/IDN60801/IDN60801.95716.json

Data quality

Most of these data are generated automatically and are frequently updated. Quality checks on data are not normally performed. It is possible for incorrect values to appear. Refer to information at About Latest Weather Observations and please check the disclaimer before using these data.